Terminal Aerodrome Forecast
Issued by NWS Twin Cities, MN

Home | Current Version | Previous Version | Text Only | Print | Product List | Glossary Off
Versions: 1 2 3 4 5 6 7 8 9 10 11 12 13

886
FTUS43 KMPX 151937 AAA
TAFEAU
TAF AMD
KEAU 151937Z 1520/1618 34010G18KT 6SM -SN SCT015 OVC035
      TEMPO 1521/1524 1 1/2SM -SN BKN015 OVC030
     FM160400 33007KT 6SM -SN SCT015 OVC025
     FM160900 33005KT P6SM SCT025 BKN040=

USA.gov is the U.S. government's official web portal to all federal, state and local government web resources and services.